createdAt,value
2023-07-18T00:00:01.517Z,17.70
2023-07-18T00:02:29.477Z,17.60
2023-07-18T00:04:57.714Z,17.50
2023-07-18T00:07:28.008Z,17.60
2023-07-18T00:09:59.029Z,17.60
2023-07-18T00:12:27.113Z,17.60
2023-07-18T00:14:55.018Z,17.50
2023-07-18T00:17:23.442Z,17.40
2023-07-18T00:19:52.168Z,17.30
2023-07-18T00:22:21.108Z,17.20
2023-07-18T00:24:50.300Z,17.10
2023-07-18T00:27:18.175Z,17.10
2023-07-18T00:29:46.005Z,17.20
2023-07-18T00:32:14.057Z,17.00
2023-07-18T00:34:42.287Z,17.10
2023-07-18T00:37:10.186Z,17.10
2023-07-18T00:39:38.067Z,17.20
2023-07-18T00:42:08.214Z,17.10
2023-07-18T00:44:36.068Z,17.20
2023-07-18T00:47:03.979Z,17.20
2023-07-18T00:49:31.817Z,17.10
2023-07-18T00:52:02.086Z,17.00
2023-07-18T00:54:30.387Z,17.00
2023-07-18T00:56:58.281Z,17.00
2023-07-18T00:59:29.518Z,17.10
2023-07-18T01:01:57.432Z,17.00
2023-07-18T01:04:25.414Z,16.90
2023-07-18T01:06:54.023Z,16.90
2023-07-18T01:09:21.962Z,16.80
2023-07-18T01:11:49.819Z,16.80
2023-07-18T01:14:17.655Z,16.90
2023-07-18T01:16:46.836Z,16.90
2023-07-18T01:19:14.664Z,16.90
2023-07-18T01:21:43.964Z,16.80
2023-07-18T01:24:12.282Z,16.60
2023-07-18T01:26:40.115Z,16.50
2023-07-18T01:29:09.722Z,16.50
2023-07-18T01:31:37.595Z,16.50
2023-07-18T01:34:06.156Z,16.50
2023-07-18T01:36:34.393Z,16.60
2023-07-18T01:39:03.621Z,16.50
2023-07-18T01:41:31.437Z,16.40
2023-07-18T01:43:59.280Z,16.30
2023-07-18T01:46:28.371Z,16.20
2023-07-18T01:48:57.216Z,16.10
2023-07-18T01:51:25.354Z,16.00
2023-07-18T01:53:53.184Z,16.00
2023-07-18T01:56:22.360Z,16.10
2023-07-18T01:58:51.007Z,16.10
2023-07-18T02:01:19.316Z,16.00
2023-07-18T02:03:48.052Z,16.10
2023-07-18T02:06:15.964Z,16.10
2023-07-18T02:08:43.793Z,16.00
2023-07-18T02:11:11.652Z,16.10
2023-07-18T02:13:40.817Z,16.20
2023-07-18T02:16:08.640Z,16.20
2023-07-18T02:18:36.693Z,16.30
2023-07-18T02:21:04.589Z,16.40
2023-07-18T02:23:32.455Z,16.40
2023-07-18T02:26:00.293Z,16.40
2023-07-18T02:28:28.113Z,16.50
2023-07-18T02:30:57.276Z,16.50
2023-07-18T02:33:25.123Z,16.40
2023-07-18T02:35:53.781Z,16.20
2023-07-18T02:38:21.614Z,16.00
2023-07-18T02:40:49.446Z,15.90
2023-07-18T02:43:17.296Z,15.80
2023-07-18T02:45:45.676Z,15.70
2023-07-18T02:48:16.121Z,15.60
2023-07-18T02:50:43.935Z,15.60
2023-07-18T02:53:12.150Z,15.60
2023-07-18T02:55:40.014Z,15.60
2023-07-18T02:58:07.874Z,15.70
2023-07-18T03:00:37.155Z,15.60
2023-07-18T03:03:05.091Z,15.80
2023-07-18T03:05:35.108Z,15.70
2023-07-18T03:08:04.455Z,15.60
2023-07-18T03:10:32.355Z,15.50
2023-07-18T03:13:00.227Z,15.60
2023-07-18T03:15:28.118Z,15.50
2023-07-18T03:17:55.989Z,15.40
2023-07-18T03:20:25.323Z,15.30
2023-07-18T03:22:55.111Z,15.30
2023-07-18T03:25:22.976Z,15.20
2023-07-18T03:27:51.138Z,15.20
2023-07-18T03:30:19.174Z,15.10
2023-07-18T03:32:47.336Z,15.10
2023-07-18T03:35:15.759Z,15.20
2023-07-18T03:37:43.876Z,15.20
2023-07-18T03:40:17.170Z,15.10
2023-07-18T03:42:45.900Z,15.20
2023-07-18T03:45:14.502Z,15.20
2023-07-18T03:47:42.650Z,15.10
2023-07-18T03:50:13.099Z,15.10
2023-07-18T03:52:41.088Z,15.10
2023-07-18T03:55:09.663Z,15.20
2023-07-18T03:57:39.117Z,15.10
2023-07-18T04:00:15.604Z,15.10
2023-07-18T04:02:46.660Z,15.10
2023-07-18T04:05:15.871Z,15.00
2023-07-18T04:07:45.132Z,15.00
2023-07-18T04:10:13.696Z,15.00
2023-07-18T04:12:43.184Z,15.00
2023-07-18T04:15:12.699Z,15.10
2023-07-18T04:17:41.023Z,15.20
2023-07-18T04:20:09.598Z,15.20
2023-07-18T04:22:37.580Z,15.10
2023-07-18T04:25:06.413Z,15.10
2023-07-18T04:27:34.292Z,15.10
2023-07-18T04:30:03.533Z,15.10
2023-07-18T04:32:31.958Z,15.30
2023-07-18T04:34:59.919Z,15.30
2023-07-18T04:37:29.271Z,15.30
2023-07-18T04:39:57.203Z,15.40
2023-07-18T04:42:25.239Z,15.40
2023-07-18T04:44:53.145Z,15.70
2023-07-18T04:47:22.465Z,15.60
2023-07-18T04:49:50.406Z,15.50
2023-07-18T04:52:18.640Z,15.50
2023-07-18T04:54:46.508Z,15.50
2023-07-18T04:57:14.558Z,15.50
2023-07-18T04:59:42.794Z,15.50
2023-07-18T05:02:10.638Z,15.70
2023-07-18T05:04:40.205Z,15.70
2023-07-18T05:07:08.348Z,15.70
2023-07-18T05:09:36.307Z,15.80
2023-07-18T05:12:04.445Z,15.80
2023-07-18T05:14:32.894Z,15.90
2023-07-18T05:17:00.897Z,16.00
2023-07-18T05:19:28.747Z,16.00
2023-07-18T05:21:57.951Z,16.10
2023-07-18T05:24:25.886Z,16.20
2023-07-18T05:26:54.059Z,16.20
2023-07-18T05:29:21.906Z,16.30
2023-07-18T05:31:49.849Z,16.40
2023-07-18T05:34:17.737Z,16.40
2023-07-18T05:36:45.601Z,16.60
2023-07-18T05:39:14.776Z,16.80
2023-07-18T05:41:42.822Z,17.00
2023-07-18T05:44:11.283Z,17.00
2023-07-18T05:46:41.127Z,17.10
2023-07-18T05:49:09.344Z,17.10
2023-07-18T05:51:37.182Z,17.10
2023-07-18T05:54:05.470Z,17.20
2023-07-18T05:56:35.520Z,17.20
2023-07-18T05:59:06.393Z,17.30
2023-07-18T06:01:34.403Z,17.30
2023-07-18T06:04:02.453Z,17.40
2023-07-18T06:06:30.364Z,17.50
2023-07-18T06:08:58.219Z,17.60
2023-07-18T06:11:26.072Z,17.70
2023-07-18T06:13:55.252Z,17.80
2023-07-18T06:16:23.083Z,17.90
2023-07-18T06:18:50.961Z,17.90
2023-07-18T06:21:19.121Z,18.10
2023-07-18T06:23:47.816Z,18.40
2023-07-18T06:26:15.717Z,18.50
2023-07-18T06:28:43.569Z,18.60
2023-07-18T06:31:13.216Z,18.80
2023-07-18T06:33:41.488Z,18.80
2023-07-18T06:36:09.559Z,18.90
2023-07-18T06:38:37.448Z,19.00
2023-07-18T06:41:05.587Z,19.10
2023-07-18T06:43:33.509Z,19.30
2023-07-18T06:46:01.743Z,19.40
2023-07-18T06:48:30.922Z,19.40
2023-07-18T06:51:00.715Z,19.50
2023-07-18T06:53:28.558Z,19.70
2023-07-18T06:55:56.432Z,19.90
2023-07-18T06:58:24.268Z,20.10
2023-07-18T07:00:52.462Z,20.20
2023-07-18T07:03:20.601Z,20.30
2023-07-18T07:05:49.905Z,20.30
2023-07-18T07:08:20.157Z,20.40
2023-07-18T07:10:48.193Z,20.60
2023-07-18T07:13:16.270Z,20.60
2023-07-18T07:15:44.128Z,20.90
2023-07-18T07:18:12.096Z,21.20
2023-07-18T07:20:39.983Z,21.30
2023-07-18T07:23:09.239Z,21.40
2023-07-18T07:25:37.111Z,21.50
2023-07-18T07:28:05.353Z,21.60
2023-07-18T07:30:33.556Z,21.70
2023-07-18T07:33:01.469Z,21.70
2023-07-18T07:35:30.974Z,21.70
2023-07-18T07:37:58.872Z,21.90
2023-07-18T07:40:28.076Z,21.90
2023-07-18T07:42:56.387Z,22.00
2023-07-18T07:45:24.437Z,22.20
2023-07-18T07:47:52.342Z,22.30
2023-07-18T07:50:20.548Z,22.40
2023-07-18T07:52:48.479Z,22.40
2023-07-18T07:55:17.208Z,22.50
2023-07-18T07:57:46.393Z,22.60
2023-07-18T08:00:15.444Z,22.70
2023-07-18T08:02:43.353Z,22.80
2023-07-18T08:05:11.288Z,23.00
2023-07-18T08:07:40.897Z,23.10
2023-07-18T08:10:09.487Z,23.20
2023-07-18T08:12:37.367Z,23.40
2023-07-18T08:15:07.707Z,23.60
2023-07-18T08:17:35.624Z,23.80
2023-07-18T08:20:07.324Z,24.00
2023-07-18T08:22:35.826Z,24.20
2023-07-18T08:25:04.942Z,24.40
2023-07-18T08:27:32.958Z,24.60
2023-07-18T08:30:00.808Z,24.80
2023-07-18T08:32:31.139Z,25.20
2023-07-18T08:34:59.004Z,25.50
2023-07-18T08:37:26.852Z,25.80
2023-07-18T08:39:54.713Z,26.10
2023-07-18T08:42:27.131Z,26.20
2023-07-18T08:44:56.273Z,26.40
2023-07-18T08:47:25.799Z,26.50
2023-07-18T08:49:55.203Z,26.60
2023-07-18T08:52:23.082Z,26.70
2023-07-18T08:54:51.169Z,27.00
2023-07-18T08:57:21.604Z,27.00
2023-07-18T08:59:50.364Z,27.30
2023-07-18T09:02:18.212Z,27.60
2023-07-18T09:04:48.271Z,27.40
2023-07-18T09:07:20.601Z,27.00
2023-07-18T09:09:49.039Z,26.60
2023-07-18T09:12:17.186Z,26.30
2023-07-18T09:14:45.041Z,26.00
2023-07-18T09:17:13.013Z,25.70
2023-07-18T09:19:42.502Z,25.60
2023-07-18T09:22:12.139Z,25.40
2023-07-18T09:24:43.608Z,25.30
2023-07-18T09:27:17.929Z,25.30
2023-07-18T09:29:46.966Z,25.10
2023-07-18T09:32:19.157Z,24.80
2023-07-18T09:34:53.688Z,24.60
2023-07-18T09:37:21.565Z,24.30
2023-07-18T09:39:50.962Z,24.10
2023-07-18T09:42:20.328Z,23.90
2023-07-18T09:44:51.923Z,23.90
2023-07-18T09:47:21.812Z,24.20
2023-07-18T09:49:51.402Z,24.40
2023-07-18T09:52:24.238Z,25.10
2023-07-18T09:54:54.994Z,25.50
2023-07-18T09:57:24.616Z,26.10
2023-07-18T09:59:52.986Z,26.30
2023-07-18T10:02:21.466Z,26.30
2023-07-18T10:04:49.628Z,26.70
2023-07-18T10:07:18.607Z,27.20
2023-07-18T10:09:47.925Z,27.30
2023-07-18T10:12:17.101Z,27.50
2023-07-18T10:14:53.999Z,27.50
2023-07-18T10:17:30.019Z,27.20
2023-07-18T10:19:58.008Z,26.60
2023-07-18T10:22:29.995Z,26.10
2023-07-18T10:25:01.896Z,25.60
2023-07-18T10:27:42.147Z,25.10
2023-07-18T10:30:12.462Z,24.60
2023-07-18T10:32:42.565Z,24.30
2023-07-18T10:35:12.358Z,24.10
2023-07-18T10:37:44.047Z,23.90
2023-07-18T10:40:12.985Z,23.70
2023-07-18T10:42:44.990Z,23.50
2023-07-18T10:45:12.930Z,23.40
2023-07-18T10:47:40.778Z,23.30
2023-07-18T10:50:10.509Z,23.10
2023-07-18T10:52:38.387Z,22.90
2023-07-18T10:55:07.786Z,22.70
2023-07-18T10:57:37.114Z,22.70
2023-07-18T11:00:07.813Z,22.70
2023-07-18T11:02:40.626Z,22.60
2023-07-18T11:05:12.023Z,22.30
2023-07-18T11:07:41.420Z,22.20
2023-07-18T11:10:10.423Z,21.90
2023-07-18T11:12:38.350Z,21.90
2023-07-18T11:15:10.162Z,21.90
2023-07-18T11:17:39.506Z,21.90
2023-07-18T11:20:09.425Z,21.90
2023-07-18T11:22:37.410Z,21.90
2023-07-18T11:25:06.591Z,21.90
2023-07-18T11:27:34.444Z,21.90
2023-07-18T11:30:04.418Z,21.90
2023-07-18T11:32:40.550Z,21.90
2023-07-18T11:35:10.330Z,22.00
2023-07-18T11:37:43.174Z,22.00
2023-07-18T11:40:13.013Z,22.10
2023-07-18T11:42:45.432Z,22.10
2023-07-18T11:45:13.907Z,22.10
2023-07-18T11:47:46.244Z,22.10
2023-07-18T11:50:15.744Z,22.10
2023-07-18T11:52:47.209Z,22.20
2023-07-18T11:55:16.056Z,22.20
2023-07-18T11:57:45.425Z,22.30
2023-07-18T12:00:14.627Z,22.40
2023-07-18T12:02:44.963Z,22.50
2023-07-18T12:05:15.631Z,22.60
2023-07-18T12:07:44.878Z,22.70
2023-07-18T12:10:13.341Z,22.90
2023-07-18T12:12:41.630Z,22.90
2023-07-18T12:15:11.135Z,23.00
2023-07-18T12:17:40.667Z,23.00
2023-07-18T12:20:10.221Z,23.00
2023-07-18T12:22:40.034Z,22.90
2023-07-18T12:25:08.622Z,22.70
2023-07-18T12:27:37.712Z,22.60
2023-07-18T12:30:06.654Z,22.60
2023-07-18T12:32:34.603Z,22.60
2023-07-18T12:35:02.531Z,22.50
2023-07-18T12:37:30.367Z,22.40
2023-07-18T12:39:59.706Z,22.30
2023-07-18T12:42:27.577Z,22.20
2023-07-18T12:44:55.399Z,22.20
2023-07-18T12:47:23.349Z,22.40
2023-07-18T12:52:21.893Z,23.00
2023-07-18T12:54:49.731Z,23.40
2023-07-18T12:57:18.901Z,23.70
2023-07-18T12:59:46.881Z,23.80
2023-07-18T13:02:15.140Z,23.70
2023-07-18T13:04:43.446Z,23.70
2023-07-18T13:07:11.261Z,23.50
2023-07-18T13:09:39.624Z,23.50
2023-07-18T13:12:08.327Z,23.50
2023-07-18T13:14:37.661Z,23.50
2023-07-18T13:17:06.019Z,23.50
2023-07-18T13:19:33.908Z,23.70
2023-07-18T13:22:01.806Z,23.80
2023-07-18T13:24:29.979Z,24.00
2023-07-18T13:26:57.831Z,24.10
2023-07-18T13:29:25.655Z,24.30
2023-07-18T13:31:54.871Z,24.30
2023-07-18T13:34:23.086Z,24.30
2023-07-18T13:36:51.232Z,24.20
2023-07-18T13:39:19.077Z,24.30
2023-07-18T13:41:47.608Z,24.30
2023-07-18T13:44:15.486Z,24.30
2023-07-18T13:46:43.401Z,24.20
2023-07-18T13:49:12.661Z,24.10
2023-07-18T13:51:40.664Z,24.00
2023-07-18T13:54:08.958Z,24.10
2023-07-18T13:56:36.843Z,24.10
2023-07-18T13:59:04.676Z,24.10
2023-07-18T14:01:32.557Z,24.10
2023-07-18T14:04:00.687Z,23.90
2023-07-18T14:06:29.958Z,23.90
2023-07-18T14:08:57.799Z,23.80
2023-07-18T14:11:27.021Z,23.70
2023-07-18T14:13:56.724Z,23.70
2023-07-18T14:16:24.712Z,23.70
2023-07-18T14:18:52.625Z,23.70
2023-07-18T14:21:20.549Z,23.80
2023-07-18T14:23:49.711Z,23.80
2023-07-18T14:26:17.778Z,23.90
2023-07-18T14:28:45.933Z,24.00
2023-07-18T14:31:14.441Z,24.00
2023-07-18T14:33:51.703Z,23.80
2023-07-18T14:36:30.483Z,23.70
2023-07-18T14:38:59.676Z,23.50
2023-07-18T14:41:27.562Z,23.30
2023-07-18T14:43:55.398Z,23.40
2023-07-18T14:46:23.931Z,23.10
2023-07-18T14:48:52.154Z,23.10
2023-07-18T14:51:20.108Z,23.10
2023-07-18T14:53:47.980Z,23.10
2023-07-18T14:56:17.394Z,23.10
2023-07-18T14:58:45.588Z,23.10
2023-07-18T15:01:13.558Z,23.10
2023-07-18T15:03:41.487Z,23.10
2023-07-18T15:06:09.603Z,23.20
2023-07-18T15:08:37.510Z,23.20
2023-07-18T15:11:05.361Z,23.20
2023-07-18T15:13:34.634Z,23.20
2023-07-18T15:16:03.995Z,23.20
2023-07-18T15:18:31.935Z,23.20
2023-07-18T15:21:00.657Z,23.20
2023-07-18T15:23:28.503Z,23.20
2023-07-18T15:25:56.583Z,23.20
2023-07-18T15:28:24.416Z,23.20
2023-07-18T15:30:53.676Z,23.20
2023-07-18T15:33:27.120Z,23.30
2023-07-18T15:35:55.896Z,23.30
2023-07-18T15:38:23.795Z,23.30
2023-07-18T15:40:51.721Z,23.30
2023-07-18T15:43:19.588Z,23.30
2023-07-18T15:45:48.990Z,23.20
2023-07-18T15:48:18.782Z,23.30
2023-07-18T15:50:46.673Z,23.30
2023-07-18T15:53:14.935Z,23.30
2023-07-18T15:55:42.847Z,23.30
2023-07-18T15:58:11.024Z,23.30
2023-07-18T16:00:39.155Z,23.30
2023-07-18T16:03:07.103Z,23.40
2023-07-18T16:05:36.384Z,23.40
2023-07-18T16:08:04.303Z,23.40
2023-07-18T16:10:32.165Z,23.50
2023-07-18T16:13:00.091Z,23.50
2023-07-18T16:15:28.095Z,23.50
2023-07-18T16:17:57.169Z,23.50
2023-07-18T16:20:25.143Z,23.60
2023-07-18T16:22:54.534Z,23.60
2023-07-18T16:25:22.727Z,23.70
2023-07-18T16:27:50.626Z,23.70
2023-07-18T16:30:19.158Z,23.70
2023-07-18T16:32:47.347Z,23.70
2023-07-18T16:35:15.466Z,23.60
2023-07-18T16:37:43.374Z,23.70
2023-07-18T16:40:13.340Z,23.70
2023-07-18T16:42:41.714Z,23.80
2023-07-18T16:45:10.516Z,23.80
2023-07-18T16:47:38.518Z,24.00
2023-07-18T16:50:07.632Z,24.10
2023-07-18T16:52:35.512Z,24.10
2023-07-18T16:55:03.346Z,24.10
2023-07-18T16:57:32.707Z,24.10
2023-07-18T17:00:00.582Z,24.20
2023-07-18T17:02:28.478Z,24.10
2023-07-18T17:04:56.804Z,24.10
2023-07-18T17:07:24.740Z,24.10
2023-07-18T17:09:52.571Z,24.10
2023-07-18T17:12:20.394Z,24.10
2023-07-18T17:14:50.049Z,24.10
2023-07-18T17:17:17.931Z,24.10
2023-07-18T17:19:58.899Z,24.00
2023-07-18T17:22:35.255Z,24.00
2023-07-18T17:25:03.464Z,24.00
2023-07-18T17:27:31.559Z,24.00
2023-07-18T17:30:01.795Z,24.00
2023-07-18T17:32:29.777Z,23.90
2023-07-18T17:34:57.657Z,23.90
2023-07-18T17:37:25.870Z,24.00
2023-07-18T17:39:53.719Z,24.00
2023-07-18T17:42:21.557Z,24.00
2023-07-18T17:44:51.633Z,24.00
2023-07-18T17:47:20.881Z,24.00
2023-07-18T17:49:48.837Z,24.00
2023-07-18T17:52:16.811Z,24.00
2023-07-18T17:54:44.751Z,23.90
2023-07-18T17:57:12.649Z,23.90
2023-07-18T17:59:41.958Z,23.80
2023-07-18T18:02:10.602Z,23.80
2023-07-18T18:04:39.896Z,23.80
2023-07-18T18:07:07.957Z,23.70
2023-07-18T18:09:35.827Z,23.70
2023-07-18T18:12:03.750Z,23.70
2023-07-18T18:14:31.568Z,23.60
2023-07-18T18:16:59.601Z,23.60
2023-07-18T18:19:27.599Z,23.50
2023-07-18T18:21:56.926Z,23.50
2023-07-18T18:24:24.772Z,23.40
2023-07-18T18:26:52.669Z,23.40
2023-07-18T18:29:22.795Z,23.30
2023-07-18T18:31:51.289Z,23.20
2023-07-18T18:34:19.155Z,23.20
2023-07-18T18:36:47.111Z,23.20
2023-07-18T18:39:16.438Z,23.10
2023-07-18T18:41:44.609Z,23.10
2023-07-18T18:44:12.488Z,23.10
2023-07-18T18:46:40.470Z,23.10
2023-07-18T18:49:16.995Z,23.10
2023-07-18T18:51:53.628Z,23.10
2023-07-18T18:54:22.933Z,23.10
2023-07-18T18:56:53.887Z,23.00
2023-07-18T18:59:22.112Z,23.00
2023-07-18T19:01:51.151Z,22.90
2023-07-18T19:04:19.265Z,22.80
2023-07-18T19:06:47.140Z,22.80
2023-07-18T19:09:14.975Z,22.70
2023-07-18T19:11:44.173Z,22.70
2023-07-18T19:14:12.023Z,22.70
2023-07-18T19:16:40.815Z,22.60
2023-07-18T19:19:09.186Z,22.60
2023-07-18T19:21:37.120Z,22.50
2023-07-18T19:24:05.437Z,22.50
2023-07-18T19:26:33.361Z,22.60
2023-07-18T19:29:02.993Z,22.50
2023-07-18T19:31:31.254Z,22.50
2023-07-18T19:33:59.198Z,22.40
2023-07-18T19:36:27.105Z,22.40
2023-07-18T19:38:55.024Z,22.30
2023-07-18T19:41:24.213Z,22.30
2023-07-18T19:43:52.278Z,22.20
2023-07-18T19:46:21.694Z,22.20
2023-07-18T19:48:49.618Z,22.10
2023-07-18T19:51:17.629Z,22.10
2023-07-18T19:53:45.789Z,22.10
2023-07-18T19:56:13.853Z,22.10
2023-07-18T19:58:41.837Z,22.00
2023-07-18T20:01:09.969Z,22.00
2023-07-18T20:03:56.734Z,22.00
2023-07-18T20:06:28.407Z,22.00
2023-07-18T20:08:56.358Z,22.00
2023-07-18T20:11:24.333Z,21.90
2023-07-18T20:13:52.674Z,22.00
2023-07-18T20:16:21.096Z,22.00
2023-07-18T20:18:53.605Z,22.00
2023-07-18T20:21:25.025Z,22.00
2023-07-18T20:23:52.917Z,22.10
2023-07-18T20:26:20.804Z,22.00
2023-07-18T20:28:48.673Z,21.90
2023-07-18T20:31:16.898Z,21.80
2023-07-18T20:33:44.897Z,21.80
2023-07-18T20:36:14.165Z,21.80
2023-07-18T20:38:43.869Z,21.90
2023-07-18T20:41:11.794Z,21.90
2023-07-18T20:43:41.633Z,21.90
2023-07-18T20:46:12.054Z,21.90
2023-07-18T20:48:40.028Z,21.80
2023-07-18T20:51:08.991Z,21.80
2023-07-18T20:53:38.189Z,21.80
2023-07-18T20:56:06.689Z,21.70
2023-07-18T20:58:35.396Z,21.60
2023-07-18T21:01:03.298Z,21.60
2023-07-18T21:03:31.432Z,21.60
2023-07-18T21:05:59.426Z,21.60
2023-07-18T21:08:27.284Z,21.60
2023-07-18T21:10:56.840Z,21.50
2023-07-18T21:13:24.748Z,21.40
2023-07-18T21:15:52.638Z,21.40
2023-07-18T21:18:20.556Z,21.30
2023-07-18T21:20:48.701Z,21.20
2023-07-18T21:23:16.653Z,21.20
2023-07-18T21:25:44.706Z,21.20
2023-07-18T21:28:13.914Z,21.20
2023-07-18T21:30:41.786Z,21.20
2023-07-18T21:33:09.742Z,21.10
2023-07-18T21:35:37.759Z,21.00
2023-07-18T21:38:06.546Z,21.00
2023-07-18T21:40:34.665Z,21.00
2023-07-18T21:43:02.489Z,21.00
2023-07-18T21:45:31.830Z,21.00
2023-07-18T21:47:59.729Z,21.00
2023-07-18T21:50:28.020Z,20.90
2023-07-18T21:52:55.890Z,20.90
2023-07-18T21:55:23.794Z,20.80
2023-07-18T21:57:51.612Z,20.80
2023-07-18T22:00:19.637Z,20.70
2023-07-18T22:02:48.919Z,20.70
2023-07-18T22:05:16.949Z,20.70
2023-07-18T22:07:44.907Z,20.70
2023-07-18T22:10:14.502Z,20.70
2023-07-18T22:12:42.536Z,20.80
2023-07-18T22:15:11.334Z,20.90
2023-07-18T22:17:40.567Z,20.90
2023-07-18T22:20:10.763Z,20.80
2023-07-18T22:22:40.336Z,20.80
2023-07-18T22:25:09.117Z,20.80
2023-07-18T22:27:36.988Z,20.80
2023-07-18T22:30:05.635Z,20.70
2023-07-18T22:32:33.504Z,20.70
2023-07-18T22:35:01.354Z,20.80
2023-07-18T22:37:30.580Z,20.80
2023-07-18T22:39:58.415Z,20.80
2023-07-18T22:42:27.339Z,20.80
2023-07-18T22:44:55.308Z,20.80
2023-07-18T22:47:23.205Z,20.70
2023-07-18T22:49:51.102Z,20.70
2023-07-18T22:52:19.971Z,20.60
2023-07-18T22:54:50.828Z,20.60
2023-07-18T22:57:19.364Z,20.50
2023-07-18T22:59:48.836Z,20.40
2023-07-18T23:02:17.275Z,20.40
2023-07-18T23:04:45.228Z,20.40
2023-07-18T23:07:13.149Z,20.40
2023-07-18T23:09:41.009Z,20.40
2023-07-18T23:12:12.307Z,20.40
2023-07-18T23:14:40.340Z,20.40
2023-07-18T23:17:09.064Z,20.30
2023-07-18T23:19:37.072Z,20.30
2023-07-18T23:22:05.464Z,20.30
2023-07-18T23:24:33.425Z,20.30
2023-07-18T23:27:01.298Z,20.30
2023-07-18T23:29:30.505Z,20.20
2023-07-18T23:31:58.466Z,20.10
2023-07-18T23:34:26.338Z,20.10
2023-07-18T23:36:54.162Z,20.10
2023-07-18T23:39:22.197Z,20.10
2023-07-18T23:41:50.041Z,20.10
2023-07-18T23:44:17.885Z,20.10
2023-07-18T23:46:47.129Z,20.10
2023-07-18T23:49:14.992Z,20.00
2023-07-18T23:51:42.825Z,19.90
2023-07-18T23:54:10.671Z,19.90
2023-07-18T23:56:38.517Z,19.80
2023-07-18T23:59:06.373Z,19.70
